SANE/SDE METAR and TAF weather

Enter ICAO airport designator
Station Type Date Time Source
SANE METAR 2020/06/23 18:20 UTC NOAA

SANE 231820Z 16008KT 4000 -DZBR BKN008 SCT010 15/14 Q1003


Station Type Date Time Source
SANE Decoded METAR 2020/06/23 18:20 UTC NOAA

Santiago Del Estero Aero., Argentina (SANE) 27-46S 064-18W 199M
Jun 23, 2020 - 02:20 PM EDT / 2020.06.23 1820 UTC
Wind: from the SSE (160 degrees) at 9 MPH (8 KT):0
Visibility: 2 mile(s):0
Sky conditions: mostly cloudy
Weather: light drizzle, mist
Temperature: 59 F (15 C)
Dew Point: 57 F (14 C)
Relative Humidity: 93%
Pressure (altimeter): 29.62 in. Hg (1003 hPa)
ob: SANE 231820Z 16008KT 4000 -DZBR BKN008 SCT010 15/14 Q1003
cycle: 18

Station Type Date Time Source
SANE TAF 2020/06/08 00:00 UTC NOAA

TAF SANE 082300Z 0900/0924 VRB03KT CAVOK TX25/0818Z TN07/0910Z
TEMPO 0907/0911 05005KT 1000 BCFG SCT008

Example: see airport list